Latest Weather Observations for Canberra

IDN60801

Issued at 2:43 am EDT Friday 29 January 2021 (issued every 10 minutes, with the page automatically refreshed every 10 minutes)

About weather observations | Map of weather stations | Latest weather observations for NSW | Other Formats
Station Details ID: 070351 Name: CANBERRA AIRPORT Lat: -35.31 Lon: 149.20 Height: 577.05 m
Data from the previous 72 hours. | See also: Recent months at Canberra
Date/Time
EDT
Temp
°C
App
Temp
°C
Dew
Point
°C
Rel
Hum
%
Delta-T
°C
Wind Press
QNH
hPa
Press
MSL
hPa
Rain since
9am
mm
Dir  Spd
km/h
Gust
km/h
Spd
kts
Gust
kts
29/02:30am 13.4 12.7 13.2 99 0.1 S 9 11 5 6 1020.7 1018.2 17.6
29/02:00am 13.3 12.6 13.1 99 0.1 S 9 11 5 6 1021.1 1018.6 17.2
29/01:30am 13.2 12.8 13.0 99 0.1 S 7 9 4 5 1021.4 1018.9 17.0
29/01:08am 13.3 12.6 13.1 99 0.1 S 9 11 5 6 1021.8 1019.2 16.6
29/01:06am 13.2 12.4 13.0 99 0.1 S 9 11 5 6 1021.8 1019.2 16.6
29/01:00am 13.3 12.9 13.1 99 0.1 SSE 7 9 4 5 1021.9 1019.3 16.4
29/12:30am 13.3 12.6 13.1 99 0.1 S 9 13 5 7 1022.3 1019.8 16.2
29/12:06am 13.3 12.6 13.1 99 0.1 S 9 13 5 7 1022.5 1020.0 15.6
29/12:00am 13.3 12.6 13.1 99 0.1 SSE 9 11 5 6 1022.6 1020.1 15.6
 
Date/Time
EDT
Temp
°C
App
Temp
°C
Dew
Point
°C
Rel
Hum
%
Delta-T
°C
Wind Press
QNH
hPa
Press
MSL
hPa
Rain since
9am
mm
Dir  Spd
km/h
Gust
km/h
Spd
kts
Gust
kts
28/11:30pm 13.3 12.9 13.1 99 0.1 SE 7 11 4 6 1022.7 1020.2 14.8
28/11:00pm 13.6 13.2 13.1 97 0.3 E 7 11 4 6 1023.1 1020.6 14.2
28/10:50pm 13.6 13.5 13.4 99 0.1 ESE 6 9 3 5 1023.1 1020.6 13.8
28/10:30pm 13.8 13.8 13.6 99 0.1 SSE 6 7 3 4 1023.2 1020.7 13.4
28/10:00pm 13.7 13.5 13.5 99 0.1 SE 7 9 4 5 1023.4 1021.0 13.0
28/09:30pm 13.7 14.8 13.5 99 0.1 CALM 0 0 0 0 1023.3 1020.8 13.0
28/09:06pm 13.7 14.7 13.2 97 0.3 CALM 0 0 0 0 1023.0 1020.5 13.0
28/09:03pm 13.7 14.7 13.2 97 0.3 CALM 0 0 0 0 1023.0 1020.5 13.0
28/09:00pm 13.7 14.7 13.2 97 0.3 CALM 0 4 0 2 1022.9 1020.4 12.8
28/08:30pm 13.8 13.8 13.6 99 0.1 S 6 9 3 5 1022.6 1020.1 12.4
28/08:18pm 13.9 13.6 13.4 97 0.3 S 7 9 4 5 1022.7 1020.2 12.2
28/08:08pm 13.9 13.7 13.6 98 0.2 SSE 7 11 4 6 1022.5 1020.0 11.8
28/08:00pm 14.0 13.8 13.7 98 0.2 SE 7 7 4 4 1022.3 1019.8 11.6
28/07:54pm 14.0 13.9 13.8 99 0.1 SE 7 9 4 5 1022.3 1019.8 11.6
28/07:30pm 14.0 14.0 13.7 98 0.2 SE 6 7 3 4 1022.4 1019.9 11.4
28/07:00pm 14.1 13.9 13.6 97 0.3 SSE 7 13 4 7 1021.9 1019.3 11.4
28/06:30pm 14.0 12.3 13.5 97 0.3 SE 15 26 8 14 1021.4 1018.9 11.0
28/06:24pm 14.1 11.5 13.8 98 0.2 SE 20 33 11 18 1021.3 1018.8 11.0
28/06:00pm 14.4 12.9 14.2 99 0.1 ESE 15 20 8 11 1022.0 1019.5 10.2
28/05:44pm 14.5 13.8 14.3 99 0.1 ESE 11 15 6 8 1022.3 1019.8 9.6
28/05:30pm 14.7 14.8 14.5 99 0.1 SE 7 11 4 6 1022.8 1020.3 8.4
28/05:00pm 14.9 15.1 14.6 98 0.2 ESE 7 9 4 5 1022.7 1020.2 7.0
28/04:30pm 14.9 14.4 13.9 94 0.6 E 9 13 5 7 1022.7 1020.2 5.8
28/04:00pm 15.0 14.5 13.9 93 0.6 ENE 9 13 5 7 1022.8 1020.3 5.2
28/03:30pm 15.1 14.1 14.5 96 0.4 E 13 15 7 8 1022.7 1020.2 4.2
28/03:00pm 15.0 13.0 13.9 93 0.6 ESE 17 24 9 13 1022.8 1020.3 3.4
28/02:44pm 15.1 13.9 14.0 93 0.6 ESE 13 17 7 9 1022.9 1020.4 2.6
28/02:30pm 15.3 14.3 13.5 89 1.0 E 11 13 6 7 1023.2 1020.7 2.0
28/02:11pm 15.6 15.9 13.4 87 1.3 E 4 7 2 4 1023.6 1021.1 1.2
28/02:00pm 15.8 15.5 13.3 85 1.4 E 7 13 4 7 1023.4 1021.0 0.8
28/01:30pm 16.1 14.4 12.5 79 2.0 SE 13 19 7 10 1023.4 1021.0 0.0
28/01:00pm 17.0 14.5 11.1 68 3.3 SE 15 26 8 14 1023.4 1021.0 0.0
28/12:30pm 17.5 15.0 11.1 66 3.6 ESE 15 22 8 12 1023.0 1020.5 0.0
28/12:00pm 17.4 15.1 11.7 69 3.2 E 15 24 8 13 1023.0 1020.5 0.0
28/11:30am 17.3 14.5 11.3 68 3.3 ESE 17 24 9 13 1023.6 1021.1 0.0
28/11:00am 17.4 13.6 11.2 67 3.4 SE 22 35 12 19 1023.3 1020.8 0.0
28/10:30am 17.6 14.2 11.4 67 3.5 ESE 20 30 11 16 1023.0 1020.5 0.0
28/10:00am 17.5 14.4 11.5 68 3.3 SE 19 30 10 16 1022.6 1020.1 0.0
28/09:30am 17.3 14.7 12.0 71 3.0 ESE 17 28 9 15 1022.5 1020.0 0.0
28/09:00am 16.6 13.9 11.7 73 2.7 SE 17 26 9 14 1022.7 1020.2 0.0
28/08:30am 16.4 13.7 11.8 74 2.6 SE 17 24 9 13 1022.6 1020.1 0.0
28/08:00am 16.0 13.3 11.6 75 2.4 SE 17 26 9 14 1022.5 1020.0 0.0
28/07:30am 16.1 14.2 11.7 75 2.5 SSE 13 26 7 14 1022.0 1019.5 0.0
28/07:00am 16.0 13.7 11.8 76 2.3 SSE 15 24 8 13 1021.7 1019.1 0.0
28/06:45am 16.1 14.2 11.9 76 2.4 SE 13 19 7 10 1021.3 1018.8 0.0
28/06:30am 16.0 13.7 11.8 76 2.3 ESE 15 20 8 11 1021.1 1018.6 0.0
28/06:21am 15.9 14.0 11.7 76 2.3 ESE 13 19 7 10 1021.0 1018.5 0.0
28/06:00am 16.1 14.2 11.9 76 2.3 ESE 13 22 7 12 1021.0 1018.5 0.0
28/05:30am 16.1 14.3 12.1 77 2.2 SE 13 20 7 11 1020.8 1018.3 0.0
28/05:00am 16.1 14.2 11.9 76 2.3 ESE 13 17 7 9 1020.6 1018.1 0.0
28/04:30am 16.1 14.7 12.3 78 2.1 SE 11 15 6 8 1020.3 1017.7 0.0
28/04:00am 16.1 14.0 12.3 78 2.1 SE 15 26 8 14 1020.5 1018.0 0.0
28/03:30am 16.3 13.8 12.3 77 2.3 ESE 17 26 9 14 1020.2 1017.6 0.0
28/03:00am 16.5 14.5 12.7 78 2.2 ESE 15 19 8 10 1020.1 1017.5 0.0
28/02:30am 16.6 15.4 12.8 78 2.2 E 11 17 6 9 1020.2 1017.6 0.0
28/02:00am 16.7 15.1 12.7 77 2.3 ESE 13 17 7 9 1020.3 1017.7 0.0
28/01:59am 16.7 15.1 12.7 77 2.3 ESE 13 17 7 9 1020.3 1017.7 0.0
28/01:30am 16.7 14.6 12.5 76 2.4 ESE 15 24 8 13 1020.4 1017.9 0.0
28/01:00am 16.8 14.0 12.7 77 2.3 ESE 19 28 10 15 1020.5 1018.0 0.0
28/12:30am 16.8 14.4 12.5 76 2.4 SE 17 30 9 16 1020.6 1018.1 0.0
28/12:00am 16.9 14.5 12.6 76 2.4 SE 17 28 9 15 1020.2 1017.6 0.0
 
Date/Time
EDT
Temp
°C
App
Temp
°C
Dew
Point
°C
Rel
Hum
%
Delta-T
°C
Wind Press
QNH
hPa
Press
MSL
hPa
Rain since
9am
mm
Dir  Spd
km/h
Gust
km/h
Spd
kts
Gust
kts
27/11:30pm 17.0 13.7 12.7 76 2.5 SE 22 32 12 17 1020.2 1017.6 0.0
27/11:00pm 17.2 13.9 12.7 75 2.6 SE 22 39 12 21 1020.3 1017.7 0.0
27/10:30pm 17.3 15.6 12.6 74 2.7 SE 13 22 7 12 1020.3 1017.7 0.0
27/10:00pm 17.4 16.1 12.5 73 2.8 SE 11 19 6 10 1020.2 1017.6 0.0
27/09:30pm 17.5 15.7 12.2 71 3.0 ESE 13 17 7 9 1019.5 1017.0 0.0
27/09:00pm 17.6 15.4 12.1 70 3.1 SE 15 20 8 11 1019.1 1016.6 0.0
27/08:30pm 17.7 15.6 11.3 66 3.6 SE 13 22 7 12 1018.8 1016.2 0.0
27/08:00pm 17.9 14.9 10.8 63 3.9 SE 17 26 9 14 1018.7 1016.1 0.0
27/07:30pm 17.9 15.1 11.2 65 3.7 SE 17 26 9 14 1018.8 1016.2 0.0
27/07:00pm 18.0 14.5 10.9 63 3.9 ESE 20 32 11 17 1018.2 1015.6 0.0
27/06:30pm 18.4 15.0 10.5 60 4.4 SE 19 33 10 18 1017.6 1015.1 0.0
27/06:00pm 19.0 16.2 8.6 51 5.6 ESE 13 28 7 15 1017.5 1015.0 0.0
27/05:30pm 19.3 15.0 7.7 47 6.1 SE 20 32 11 17 1017.1 1014.5 0.0
27/05:00pm 19.3 13.9 8.0 48 6.0 ESE 26 37 14 20 1017.0 1014.4 0.0
27/04:30pm 19.1 15.5 11.9 63 4.1 ESE 22 35 12 19 1016.7 1014.1 0.0
27/04:00pm 19.4 16.1 12.7 65 3.9 ESE 22 30 12 16 1016.6 1014.0 0.0
27/03:30pm 19.3 16.1 13.0 67 3.7 ESE 22 30 12 16 1016.8 1014.2 0.0
27/03:00pm 19.0 16.1 13.0 68 3.5 E 20 26 11 14 1016.8 1014.2 0.0
27/02:30pm 19.0 16.1 13.0 68 3.5 ESE 20 30 11 16 1016.7 1014.1 0.0
27/02:19pm 19.0 15.3 12.7 67 3.6 E 24 30 13 16 1016.5 1013.9 0.0
27/02:00pm 19.2 17.0 13.4 69 3.4 ESE 17 24 9 13 1016.6 1014.0 0.0
27/01:30pm 19.2 16.6 13.8 71 3.2 ESE 20 28 11 15 1016.5 1013.9 0.0
27/01:00pm 18.8 17.6 14.1 74 2.8 E 13 17 7 9 1016.4 1013.8 0.0
27/12:30pm 18.9 17.8 14.4 75 2.7 E 13 17 7 9 1016.2 1013.6 0.0
27/12:00pm 18.8 18.0 15.1 79 2.2 ENE 13 19 7 10 1015.9 1013.4 0.0
27/11:30am 18.1 16.7 14.4 79 2.2 ENE 15 20 8 11 1015.6 1013.0 0.0
27/11:00am 18.3 16.9 14.4 78 2.3 ESE 15 19 8 10 1015.5 1012.9 0.0
27/10:36am 17.9 17.2 14.2 79 2.2 ESE 11 15 6 8 1015.4 1012.8 0.0
27/10:30am 18.0 17.4 14.7 81 2.0 ESE 11 15 6 8 1015.4 1012.8 0.0
27/10:27am 18.0 17.0 14.7 81 2.0 ESE 13 17 7 9 1015.3 1012.7 0.0
27/10:00am 17.9 17.8 15.9 88 1.2 SSE 11 13 6 7 1015.1 1012.5 0.0
27/09:30am 17.1 16.7 15.1 88 1.2 SSE 11 15 6 8 1014.9 1012.3 0.0
27/09:00am 17.2 17.1 15.0 87 1.3 SSE 9 13 5 7 1014.6 1012.0 5.0
27/08:30am 17.0 16.9 15.0 88 1.2 SSE 9 13 5 7 1014.0 1011.4 5.0
27/08:00am 16.9 17.2 15.1 89 1.1 SSE 7 9 4 5 1013.6 1011.0 5.0
27/07:30am 16.7 16.8 15.4 92 0.8 SE 9 13 5 7 1013.0 1010.4 5.0
27/07:00am 16.9 17.4 15.6 92 0.8 SE 7 11 4 6 1012.5 1009.8 5.0
27/06:30am 16.8 17.0 15.7 93 0.7 ESE 9 11 5 6 1011.8 1009.2 5.0
27/06:00am 17.0 15.5 15.3 90 1.0 ESE 17 20 9 11 1011.1 1008.4 5.0
27/05:30am 17.4 17.0 16.3 93 0.7 ESE 13 20 7 11 1010.4 1007.8 5.0
27/05:00am 17.4 17.2 16.8 96 0.4 ESE 13 17 7 9 1009.8 1007.2 5.0
27/04:30am 18.3 19.5 17.3 94 0.6 E 7 13 4 7 1009.6 1007.0 5.0
27/04:00am 18.8 19.6 17.3 91 0.9 SE 9 13 5 7 1009.1 1006.4 5.0
27/03:30am 19.7 21.0 18.5 93 0.8 ESE 9 13 5 7 1009.1 1006.4 5.0
27/03:00am 19.5 21.6 19.3 99 0.1 S 7 9 4 5 1008.8 1006.1 5.0
27/02:30am 19.8 21.6 19.5 98 0.2 SSE 9 11 5 6 1008.8 1006.1 5.0
27/02:00am 20.4 23.1 20.2 99 0.1 NNE 6 9 3 5 1008.6 1006.0 5.0
27/01:30am 20.4 23.1 20.2 99 0.1 NNE 6 7 3 4 1008.6 1006.0 5.0
27/01:00am 20.4 22.9 20.2 99 0.1 NNE 7 7 4 4 1008.6 1006.0 5.0
27/12:30am 20.3 24.1 20.1 99 0.1 CALM 0 0 0 0 1008.8 1006.1 5.0
27/12:00am 20.3 24.1 20.1 99 0.1 CALM 0 0 0 0 1008.8 1006.1 5.0
 
Date/Time
EDT
Temp
°C
App
Temp
°C
Dew
Point
°C
Rel
Hum
%
Delta-T
°C
Wind Press
QNH
hPa
Press
MSL
hPa
Rain since
9am
mm
Dir  Spd
km/h
Gust
km/h
Spd
kts
Gust
kts
26/11:33pm 20.2 23.9 20.0 99 0.1 CALM 0 0 0 0 1008.6 1006.0 5.0
26/11:30pm 20.2 23.9 20.0 99 0.1 CALM 0 0 0 0 1008.6 1006.0 5.0
26/11:13pm 20.1 22.5 20.1 100 0.0 NNE 7 11 4 6 1008.4 1005.8 5.0
26/11:00pm 20.0 22.0 20.0 100 0.0 NE 9 11 5 6 1008.4 1005.8 5.0
26/10:46pm 19.9 21.9 19.9 100 0.0 NE 9 11 5 6 1008.3 1005.7 5.0
26/10:30pm 19.8 21.3 19.8 100 0.0 NNE 11 15 6 8 1008.4 1005.8 5.0
26/10:00pm 19.8 21.3 19.8 100 0.0 NNE 11 13 6 7 1008.3 1005.7 5.0
26/09:30pm 19.7 20.7 19.5 99 0.1 NNE 13 15 7 8 1008.1 1005.5 4.8
26/09:00pm 20.0 20.8 19.8 99 0.1 N 15 19 8 10 1007.8 1005.1 3.8
26/08:57pm 20.1 20.5 19.9 99 0.1 N 17 19 9 10 1007.8 1005.1 3.6
26/08:30pm 20.5 20.4 19.5 94 0.6 NNW 19 26 10 14 1007.4 1004.7 2.0
26/08:27pm 20.5 20.4 19.5 94 0.6 NNW 19 26 10 14 1007.3 1004.6 2.0
26/08:10pm 21.2 21.6 19.1 88 1.4 N 15 19 8 10 1006.8 1004.2 0.4
26/08:00pm 22.0 22.2 18.6 81 2.2 NNW 15 20 8 11 1006.6 1004.0 0.0
26/07:45pm 22.5 22.2 18.3 77 2.7 NNW 17 24 9 13 1006.4 1003.7 0.0
26/07:30pm 22.7 21.2 17.8 74 3.1 NNW 22 30 12 16 1006.1 1003.4 0.0
26/07:00pm 23.3 23.6 18.0 72 3.4 NNW 13 17 7 9 1005.8 1003.1 0.0
26/06:30pm 22.8 22.6 17.5 72 3.4 N 15 19 8 10 1005.5 1002.8 0.0
26/06:00pm 23.1 24.2 18.8 77 2.8 W 11 13 6 7 1005.3 1002.6 0.0
26/05:30pm 22.8 23.2 18.1 75 3.0 W 13 19 7 10 1005.1 1002.4 0.0
26/05:00pm 22.5 22.3 17.6 74 3.1 W 15 20 8 11 1005.2 1002.5 0.0
26/04:30pm 22.9 22.3 17.6 72 3.4 WNW 17 22 9 12 1004.9 1002.3 0.0
26/04:00pm 24.5 20.7 15.7 58 5.5 W 30 41 16 22 1004.6 1001.9 0.0
26/03:30pm 27.2 23.6 14.2 44 8.0 W 26 35 14 19 1004.2 1001.5 0.0
26/03:00pm 27.4 24.1 14.1 44 8.2 WNW 24 33 13 18 1004.4 1001.7 0.0
26/02:30pm 27.7 23.0 13.3 41 8.7 WNW 30 48 16 26 1004.3 1001.6 0.0
26/02:14pm 27.6 21.7 12.4 39 9.1 WNW 35 54 19 29 1004.1 1001.4 0.0
26/02:03pm 29.1 22.9 12.5 36 10.0 NW 37 52 20 28 1003.9 1001.2 0.0
26/02:00pm 29.1 22.5 12.5 36 10.0 NW 39 52 21 28 1003.9 1001.2 0.0
26/01:30pm 30.0 23.8 11.5 32 11.0 WNW 35 48 19 26 1004.0 1001.3 0.0
26/01:27pm 30.1 23.4 11.1 31 11.2 NW 37 56 20 30 1004.0 1001.3 0.0
26/01:00pm 30.4 23.7 10.9 30 11.5 NW 37 50 20 27 1004.0 1001.3 0.0
26/12:30pm 30.1 23.7 10.6 30 11.4 NW 35 48 19 26 1003.9 1001.2 0.0
26/12:01pm 30.5 24.6 10.5 29 11.7 NW 32 52 17 28 1004.0 1001.3 0.0
26/12:00pm 30.6 24.7 10.5 29 11.8 NW 32 46 17 25 1003.9 1001.2 0.0
26/11:43am 31.0 25.1 10.4 28 12.1 WNW 32 50 17 27 1004.1 1001.4 0.0
26/11:30am 30.7 24.9 11.6 31 11.4 NW 33 46 18 25 1004.2 1001.5 0.0
26/11:00am 28.1 21.0 10.8 34 10.1 NW 39 50 21 27 1004.4 1001.7 0.0
26/10:30am 29.0 22.1 10.2 31 10.9 NW 37 52 20 28 1004.4 1001.7 0.0
26/10:08am 28.3 22.9 10.9 34 10.2 NW 30 50 16 27 1004.3 1001.6 0.0
26/10:00am 28.8 23.8 10.9 33 10.5 NNW 28 37 15 20 1004.4 1001.7 0.0
26/09:30am 27.2 22.2 10.8 36 9.5 NNW 28 39 15 21 1004.8 1002.1 0.0
26/09:11am 26.5 20.5 10.2 36 9.3 NW 32 50 17 27 1005.1 1002.4 0.0
26/09:00am 26.3 19.8 10.5 37 9.1 NW 35 48 19 26 1004.9 1002.3 0.0
26/08:30am 25.7 19.6 10.3 38 8.8 NNW 33 44 18 24 1004.8 1002.1 0.0
26/08:00am 26.3 20.8 10.5 37 9.1 NNW 30 41 16 22 1004.9 1002.3 0.0
26/07:30am 24.9 21.3 10.0 39 8.4 NNW 19 35 10 19 1004.8 1002.1 0.0
26/07:20am 24.5 23.3 11.5 44 7.5 N 9 22 5 12 1004.9 1002.3 0.0
26/07:00am 19.3 17.9 9.5 53 5.4 S 7 11 4 6 1005.1 1002.4 0.0
26/06:30am 19.4 18.6 9.6 53 5.4 E 4 7 2 4 1004.4 1001.7 0.0
26/06:00am 19.5 18.2 10.0 54 5.3 ESE 7 9 4 5 1004.1 1001.4 0.0
26/05:30am 18.4 16.9 9.2 55 5.0 E 7 11 4 6 1003.9 1001.2 0.0
26/05:00am 19.5 18.3 9.4 52 5.5 SE 6 11 3 6 1003.7 1001.0 0.0
26/04:30am 21.2 19.7 8.5 44 6.9 S 6 7 3 4 1003.6 1000.9 0.0
26/04:00am 24.7 22.0 9.0 37 8.8 NNW 13 17 7 9 1003.7 1001.0 0.0
26/03:30am 24.7 21.6 9.0 37 8.7 N 15 22 8 12 1003.9 1001.2 0.0
26/03:00am 25.2 22.2 9.1 36 9.0 N 15 22 8 12 1004.3 1001.6 0.0

Other formats

Comma delimited format used in spreadsheet applications
http://www.bom.gov.au/fwo/IDN60801/IDN60801.94926.axf

JavaScript Object Notation format (JSON) in row-major order
http://www.bom.gov.au/fwo/IDN60801/IDN60801.94926.json

Data quality

Most of these data are generated automatically and are frequently updated. Quality checks on data are not normally performed. It is possible for incorrect values to appear. Refer to information at About Latest Weather Observations and please check the disclaimer before using these data.